sensor_id;sensor_type;location;lat;lon;timestamp;pressure;altitude;pressure_sealevel;temperature;humidity
13594;BME280;6449;47.666;9.160;2023-05-16T00:01:04;96584.75;;;12.51;100.00
13594;BME280;6449;47.666;9.160;2023-05-16T00:05:58;96576.91;;;12.71;100.00
13594;BME280;6449;47.666;9.160;2023-05-16T00:10:53;96579.69;;;12.79;100.00
13594;BME280;6449;47.666;9.160;2023-05-16T00:15:48;96585.91;;;12.78;100.00
13594;BME280;6449;47.666;9.160;2023-05-16T00:20:42;96571.38;;;12.74;100.00
13594;BME280;6449;47.666;9.160;2023-05-16T00:25:36;96575.53;;;12.76;100.00
13594;BME280;6449;47.666;9.160;2023-05-16T00:30:29;96565.84;;;12.87;100.00
13594;BME280;6449;47.666;9.160;2023-05-16T00:35:24;96562.53;;;12.84;100.00
13594;BME280;6449;47.666;9.160;2023-05-16T00:40:18;96569.84;;;12.91;100.00
13594;BME280;6449;47.666;9.160;2023-05-16T00:45:12;96560.72;;;12.75;100.00
13594;BME280;6449;47.666;9.160;2023-05-16T00:50:06;96568.59;;;12.75;100.00
13594;BME280;6449;47.666;9.160;2023-05-16T00:55:01;96567.63;;;12.76;100.00
13594;BME280;6449;47.666;9.160;2023-05-16T00:59:55;96549.63;;;12.81;100.00
13594;BME280;6449;47.666;9.160;2023-05-16T01:04:49;96552.41;;;12.80;100.00
13594;BME280;6449;47.666;9.160;2023-05-16T01:09:43;96544.94;;;12.75;100.00
13594;BME280;6449;47.666;9.160;2023-05-16T01:14:46;96548.38;;;12.56;100.00
13594;BME280;6449;47.666;9.160;2023-05-16T01:19:56;96549.75;;;12.41;100.00
13594;BME280;6449;47.666;9.160;2023-05-16T01:25:05;96551.53;;;12.41;100.00
13594;BME280;6449;47.666;9.160;2023-05-16T01:30:14;96542.84;;;12.50;100.00
13594;BME280;6449;47.666;9.160;2023-05-16T01:35:15;96549.06;;;12.49;100.00
13594;BME280;6449;47.666;9.160;2023-05-16T01:40:15;96549.63;;;12.52;100.00
13594;BME280;6449;47.666;9.160;2023-05-16T01:45:19;96535.75;;;12.41;100.00
13594;BME280;6449;47.666;9.160;2023-05-16T01:50:20;96537.88;;;12.47;100.00
13594;BME280;6449;47.666;9.160;2023-05-16T01:55:36;96535.94;;;12.58;100.00
13594;BME280;6449;47.666;9.160;2023-05-16T02:00:33;96526.25;;;12.59;100.00
13594;BME280;6449;47.666;9.160;2023-05-16T02:05:26;96528.19;;;12.57;100.00
13594;BME280;6449;47.666;9.160;2023-05-16T02:10:20;96524.69;;;12.56;100.00
13594;BME280;6449;47.666;9.160;2023-05-16T02:15:13;96526.09;;;12.51;100.00
13594;BME280;6449;47.666;9.160;2023-05-16T02:20:10;96522.75;;;12.29;100.00
13594;BME280;6449;47.666;9.160;2023-05-16T02:25:05;96526.06;;;12.22;100.00
13594;BME280;6449;47.666;9.160;2023-05-16T02:29:59;96516.22;;;12.24;100.00
13594;BME280;6449;47.666;9.160;2023-05-16T02:34:52;96508.75;;;12.19;100.00
13594;BME280;6449;47.666;9.160;2023-05-16T02:39:47;96498.69;;;12.34;100.00
13594;BME280;6449;47.666;9.160;2023-05-16T02:44:40;96500.19;;;12.46;100.00
13594;BME280;6449;47.666;9.160;2023-05-16T02:49:33;96500.22;;;12.56;100.00
13594;BME280;6449;47.666;9.160;2023-05-16T02:54:27;96518.09;;;12.52;100.00
13594;BME280;6449;47.666;9.160;2023-05-16T02:59:21;96515.97;;;12.46;100.00
13594;BME280;6449;47.666;9.160;2023-05-16T03:04:15;96518.03;;;12.23;100.00
13594;BME280;6449;47.666;9.160;2023-05-16T03:09:08;96528.09;;;11.99;100.00
13594;BME280;6449;47.666;9.160;2023-05-16T03:14:02;96527.91;;;11.91;100.00
13594;BME280;6449;47.666;9.160;2023-05-16T03:18:56;96522.41;;;12.03;100.00
13594;BME280;6449;47.666;9.160;2023-05-16T03:23:50;96519.38;;;12.08;100.00
13594;BME280;6449;47.666;9.160;2023-05-16T03:28:43;96516.72;;;11.98;100.00
13594;BME280;6449;47.666;9.160;2023-05-16T03:33:36;96515.06;;;11.97;100.00
13594;BME280;6449;47.666;9.160;2023-05-16T03:38:31;96507.75;;;12.01;100.00
13594;BME280;6449;47.666;9.160;2023-05-16T03:43:24;96500.97;;;11.98;100.00
13594;BME280;6449;47.666;9.160;2023-05-16T03:48:18;96499.63;;;12.14;100.00
13594;BME280;6449;47.666;9.160;2023-05-16T03:53:11;96509.44;;;12.12;100.00
13594;BME280;6449;47.666;9.160;2023-05-16T03:58:06;96509.28;;;12.03;100.00
13594;BME280;6449;47.666;9.160;2023-05-16T04:02:59;96510.97;;;12.04;100.00
13594;BME280;6449;47.666;9.160;2023-05-16T04:07:53;96510.63;;;11.88;100.00
13594;BME280;6449;47.666;9.160;2023-05-16T04:12:46;96510.34;;;11.91;100.00
13594;BME280;6449;47.666;9.160;2023-05-16T04:17:41;96515.78;;;11.99;100.00
13594;BME280;6449;47.666;9.160;2023-05-16T04:22:34;96518.56;;;12.07;100.00
13594;BME280;6449;47.666;9.160;2023-05-16T04:27:27;96523.00;;;12.17;100.00
13594;BME280;6449;47.666;9.160;2023-05-16T04:32:21;96524.41;;;12.21;100.00
13594;BME280;6449;47.666;9.160;2023-05-16T04:37:16;96527.72;;;12.23;100.00
13594;BME280;6449;47.666;9.160;2023-05-16T04:42:09;96525.91;;;12.23;100.00
13594;BME280;6449;47.666;9.160;2023-05-16T04:47:03;96528.28;;;12.26;100.00
13594;BME280;6449;47.666;9.160;2023-05-16T04:51:56;96532.59;;;12.37;100.00
13594;BME280;6449;47.666;9.160;2023-05-16T04:56:51;96530.38;;;12.42;100.00
13594;BME280;6449;47.666;9.160;2023-05-16T05:01:45;96530.50;;;12.50;100.00
13594;BME280;6449;47.666;9.160;2023-05-16T05:06:38;96527.47;;;12.45;100.00
13594;BME280;6449;47.666;9.160;2023-05-16T05:11:32;96534.00;;;12.41;100.00
13594;BME280;6449;47.666;9.160;2023-05-16T05:16:26;96524.44;;;12.50;100.00
13594;BME280;6449;47.666;9.160;2023-05-16T05:21:20;96539.13;;;12.52;100.00
13594;BME280;6449;47.666;9.160;2023-05-16T05:26:16;96542.44;;;12.54;100.00
13594;BME280;6449;47.666;9.160;2023-05-16T05:31:10;96548.78;;;12.62;100.00
13594;BME280;6449;47.666;9.160;2023-05-16T05:36:05;96549.50;;;12.54;100.00
13594;BME280;6449;47.666;9.160;2023-05-16T05:40:59;96545.91;;;12.65;100.00
13594;BME280;6449;47.666;9.160;2023-05-16T05:45:52;96551.44;;;12.71;100.00
13594;BME280;6449;47.666;9.160;2023-05-16T05:50:46;96570.81;;;12.70;100.00
13594;BME280;6449;47.666;9.160;2023-05-16T05:55:40;96568.47;;;12.87;100.00
13594;BME280;6449;47.666;9.160;2023-05-16T06:00:34;96591.97;;;12.59;100.00
13594;BME280;6449;47.666;9.160;2023-05-16T06:05:27;96582.72;;;12.74;100.00
13594;BME280;6449;47.666;9.160;2023-05-16T06:10:21;96577.47;;;12.74;100.00
13594;BME280;6449;47.666;9.160;2023-05-16T06:15:16;96576.78;;;12.82;100.00
13594;BME280;6449;47.666;9.160;2023-05-16T06:20:10;96599.91;;;12.69;100.00
13594;BME280;6449;47.666;9.160;2023-05-16T06:25:05;96597.66;;;12.83;100.00
13594;BME280;6449;47.666;9.160;2023-05-16T06:29:58;96599.78;;;12.90;100.00
13594;BME280;6449;47.666;9.160;2023-05-16T06:34:53;96602.28;;;13.10;100.00
13594;BME280;6449;47.666;9.160;2023-05-16T06:39:46;96626.91;;;12.90;100.00
13594;BME280;6449;47.666;9.160;2023-05-16T06:44:40;96616.94;;;13.03;100.00
13594;BME280;6449;47.666;9.160;2023-05-16T06:49:33;96612.13;;;13.28;100.00
13594;BME280;6449;47.666;9.160;2023-05-16T06:54:28;96621.09;;;13.54;100.00
13594;BME280;6449;47.666;9.160;2023-05-16T06:59:21;96630.25;;;13.50;100.00
13594;BME280;6449;47.666;9.160;2023-05-16T07:04:16;96631.06;;;13.41;100.00
13594;BME280;6449;47.666;9.160;2023-05-16T07:09:09;96633.13;;;13.67;100.00
13594;BME280;6449;47.666;9.160;2023-05-16T07:14:04;96633.94;;;13.77;100.00
13594;BME280;6449;47.666;9.160;2023-05-16T07:18:57;96629.34;;;14.16;100.00
13594;BME280;6449;47.666;9.160;2023-05-16T07:23:51;96636.16;;;14.46;100.00
13594;BME280;6449;47.666;9.160;2023-05-16T07:28:44;96636.66;;;14.87;100.00
13594;BME280;6449;47.666;9.160;2023-05-16T07:33:39;96651.59;;;14.51;100.00
13594;BME280;6449;47.666;9.160;2023-05-16T07:38:33;96655.38;;;14.38;100.00
13594;BME280;6449;47.666;9.160;2023-05-16T07:43:26;96650.41;;;14.63;100.00
13594;BME280;6449;47.666;9.160;2023-05-16T07:48:21;96657.28;;;14.74;100.00
13594;BME280;6449;47.666;9.160;2023-05-16T07:53:16;96656.63;;;15.07;100.00
13594;BME280;6449;47.666;9.160;2023-05-16T07:58:09;96659.72;;;14.85;100.00
13594;BME280;6449;47.666;9.160;2023-05-16T08:03:03;96671.75;;;14.70;100.00
13594;BME280;6449;47.666;9.160;2023-05-16T08:07:57;96657.91;;;14.58;100.00
13594;BME280;6449;47.666;9.160;2023-05-16T08:12:52;96660.75;;;14.37;100.00
13594;BME280;6449;47.666;9.160;2023-05-16T08:17:45;96672.97;;;14.38;100.00
13594;BME280;6449;47.666;9.160;2023-05-16T08:22:39;96661.69;;;14.55;100.00
13594;BME280;6449;47.666;9.160;2023-05-16T08:27:32;96660.13;;;14.62;100.00
13594;BME280;6449;47.666;9.160;2023-05-16T08:32:27;96666.06;;;14.64;100.00
13594;BME280;6449;47.666;9.160;2023-05-16T08:37:20;96658.66;;;14.50;100.00
13594;BME280;6449;47.666;9.160;2023-05-16T08:42:14;96658.94;;;14.47;100.00
13594;BME280;6449;47.666;9.160;2023-05-16T08:47:12;96660.28;;;14.61;100.00
13594;BME280;6449;47.666;9.160;2023-05-16T08:52:12;96661.44;;;14.49;100.00
13594;BME280;6449;47.666;9.160;2023-05-16T08:57:08;96665.59;;;14.51;100.00
13594;BME280;6449;47.666;9.160;2023-05-16T09:02:01;96664.94;;;14.49;100.00
13594;BME280;6449;47.666;9.160;2023-05-16T09:06:55;96658.78;;;14.49;100.00
13594;BME280;6449;47.666;9.160;2023-05-16T09:11:50;96658.03;;;14.66;100.00
13594;BME280;6449;47.666;9.160;2023-05-16T09:16:44;96655.69;;;14.63;100.00
13594;BME280;6449;47.666;9.160;2023-05-16T09:21:55;96650.22;;;14.37;100.00
13594;BME280;6449;47.666;9.160;2023-05-16T09:26:50;96649.72;;;14.24;100.00
13594;BME280;6449;47.666;9.160;2023-05-16T09:31:44;96651.94;;;14.28;100.00
13594;BME280;6449;47.666;9.160;2023-05-16T09:36:37;96652.56;;;14.40;100.00
13594;BME280;6449;47.666;9.160;2023-05-16T09:41:34;96664.94;;;14.39;100.00
13594;BME280;6449;47.666;9.160;2023-05-16T09:46:29;96664.09;;;14.11;100.00
13594;BME280;6449;47.666;9.160;2023-05-16T09:51:25;96637.59;;;14.03;100.00
13594;BME280;6449;47.666;9.160;2023-05-16T09:56:19;96634.66;;;13.59;100.00
13594;BME280;6449;47.666;9.160;2023-05-16T10:01:13;96612.72;;;13.69;100.00
13594;BME280;6449;47.666;9.160;2023-05-16T10:06:09;96610.31;;;13.38;100.00
13594;BME280;6449;47.666;9.160;2023-05-16T10:11:05;96598.50;;;13.42;100.00
13594;BME280;6449;47.666;9.160;2023-05-16T10:16:05;96599.47;;;13.02;100.00
13594;BME280;6449;47.666;9.160;2023-05-16T10:21:04;96588.97;;;13.02;100.00
13594;BME280;6449;47.666;9.160;2023-05-16T10:26:04;96586.63;;;12.90;100.00
13594;BME280;6449;47.666;9.160;2023-05-16T10:31:01;96581.75;;;12.66;100.00
13594;BME280;6449;47.666;9.160;2023-05-16T10:35:56;96589.50;;;12.57;100.00
13594;BME280;6449;47.666;9.160;2023-05-16T10:40:50;96578.56;;;12.52;100.00
13594;BME280;6449;47.666;9.160;2023-05-16T10:45:54;96589.22;;;12.61;100.00
13594;BME280;6449;47.666;9.160;2023-05-16T10:50:48;96591.75;;;13.01;100.00
13594;BME280;6449;47.666;9.160;2023-05-16T10:55:50;96586.44;;;13.20;100.00
13594;BME280;6449;47.666;9.160;2023-05-16T11:01:20;96584.97;;;13.27;100.00
13594;BME280;6449;47.666;9.160;2023-05-16T11:06:20;96585.78;;;12.89;100.00
13594;BME280;6449;47.666;9.160;2023-05-16T11:11:39;96582.16;;;12.71;100.00
13594;BME280;6449;47.666;9.160;2023-05-16T11:16:35;96589.09;;;12.72;100.00
13594;BME280;6449;47.666;9.160;2023-05-16T11:22:08;96601.56;;;12.89;100.00
13594;BME280;6449;47.666;9.160;2023-05-16T11:27:04;96614.41;;;12.73;100.00
13594;BME280;6449;47.666;9.160;2023-05-16T11:32:00;96603.63;;;12.85;100.00
13594;BME280;6449;47.666;9.160;2023-05-16T11:36:54;96618.19;;;12.80;100.00
13594;BME280;6449;47.666;9.160;2023-05-16T11:41:48;96636.16;;;12.75;100.00
13594;BME280;6449;47.666;9.160;2023-05-16T11:46:42;96636.47;;;12.91;100.00
13594;BME280;6449;47.666;9.160;2023-05-16T11:51:38;96633.81;;;12.91;100.00
13594;BME280;6449;47.666;9.160;2023-05-16T11:56:35;96646.81;;;12.83;100.00
13594;BME280;6449;47.666;9.160;2023-05-16T12:01:33;96647.38;;;12.87;100.00
13594;BME280;6449;47.666;9.160;2023-05-16T12:06:26;96660.97;;;12.92;100.00
13594;BME280;6449;47.666;9.160;2023-05-16T12:11:24;96661.28;;;13.18;100.00
13594;BME280;6449;47.666;9.160;2023-05-16T12:16:17;96683.94;;;12.80;100.00
13594;BME280;6449;47.666;9.160;2023-05-16T12:21:12;96668.88;;;13.01;100.00
13594;BME280;6449;47.666;9.160;2023-05-16T12:26:05;96667.38;;;13.18;100.00
13594;BME280;6449;47.666;9.160;2023-05-16T12:31:00;96649.09;;;13.36;100.00
13594;BME280;6449;47.666;9.160;2023-05-16T12:35:54;96648.00;;;13.48;100.00
13594;BME280;6449;47.666;9.160;2023-05-16T12:40:47;96680.41;;;13.29;100.00
13594;BME280;6449;47.666;9.160;2023-05-16T12:45:49;96685.69;;;13.29;100.00
13594;BME280;6449;47.666;9.160;2023-05-16T12:50:45;96699.41;;;13.23;100.00
13594;BME280;6449;47.666;9.160;2023-05-16T12:55:40;96678.22;;;13.44;100.00
13594;BME280;6449;47.666;9.160;2023-05-16T13:00:34;96703.28;;;13.29;100.00
13594;BME280;6449;47.666;9.160;2023-05-16T13:05:28;96695.25;;;13.40;100.00
13594;BME280;6449;47.666;9.160;2023-05-16T13:10:23;96697.31;;;13.36;100.00
13594;BME280;6449;47.666;9.160;2023-05-16T13:15:17;96680.84;;;13.63;100.00
13594;BME280;6449;47.666;9.160;2023-05-16T13:20:11;96704.97;;;13.59;100.00
13594;BME280;6449;47.666;9.160;2023-05-16T13:25:07;96703.13;;;13.79;100.00
13594;BME280;6449;47.666;9.160;2023-05-16T13:30:03;96697.31;;;13.85;100.00
13594;BME280;6449;47.666;9.160;2023-05-16T13:34:57;96709.34;;;13.78;100.00
13594;BME280;6449;47.666;9.160;2023-05-16T13:39:50;96689.78;;;13.90;100.00
13594;BME280;6449;47.666;9.160;2023-05-16T13:44:45;96686.88;;;13.93;100.00
13594;BME280;6449;47.666;9.160;2023-05-16T13:49:40;96701.72;;;13.84;100.00
13594;BME280;6449;47.666;9.160;2023-05-16T13:54:33;96713.69;;;13.59;100.00
13594;BME280;6449;47.666;9.160;2023-05-16T13:59:27;96726.44;;;13.45;100.00
13594;BME280;6449;47.666;9.160;2023-05-16T14:04:42;96708.97;;;13.24;100.00
13594;BME280;6449;47.666;9.160;2023-05-16T14:09:35;96697.34;;;13.27;100.00
13594;BME280;6449;47.666;9.160;2023-05-16T14:14:30;96716.94;;;13.13;100.00
13594;BME280;6449;47.666;9.160;2023-05-16T14:19:23;96712.91;;;12.99;100.00
13594;BME280;6449;47.666;9.160;2023-05-16T14:24:18;96702.25;;;13.01;100.00
13594;BME280;6449;47.666;9.160;2023-05-16T14:29:12;96706.16;;;13.06;100.00
13594;BME280;6449;47.666;9.160;2023-05-16T14:34:05;96716.94;;;13.13;100.00
13594;BME280;6449;47.666;9.160;2023-05-16T14:38:58;96720.38;;;12.94;100.00
13594;BME280;6449;47.666;9.160;2023-05-16T14:43:54;96715.53;;;12.99;100.00
13594;BME280;6449;47.666;9.160;2023-05-16T14:48:48;96721.50;;;13.01;100.00
13594;BME280;6449;47.666;9.160;2023-05-16T14:53:42;96709.25;;;13.21;100.00
13594;BME280;6449;47.666;9.160;2023-05-16T14:58:38;96731.50;;;13.07;100.00
13594;BME280;6449;47.666;9.160;2023-05-16T15:03:33;96742.72;;;13.00;100.00
13594;BME280;6449;47.666;9.160;2023-05-16T15:08:42;96752.56;;;13.07;100.00
13594;BME280;6449;47.666;9.160;2023-05-16T15:13:35;96763.28;;;12.85;100.00
13594;BME280;6449;47.666;9.160;2023-05-16T15:18:28;96769.66;;;12.82;100.00
13594;BME280;6449;47.666;9.160;2023-05-16T15:23:23;96768.94;;;12.80;100.00
13594;BME280;6449;47.666;9.160;2023-05-16T15:28:17;96770.75;;;12.80;100.00
13594;BME280;6449;47.666;9.160;2023-05-16T15:33:13;96773.19;;;12.72;100.00
13594;BME280;6449;47.666;9.160;2023-05-16T15:38:07;96784.13;;;12.67;100.00
13594;BME280;6449;47.666;9.160;2023-05-16T15:43:01;96779.72;;;12.77;100.00
13594;BME280;6449;47.666;9.160;2023-05-16T15:47:55;96785.91;;;12.67;100.00
13594;BME280;6449;47.666;9.160;2023-05-16T15:52:49;96796.97;;;12.61;100.00
13594;BME280;6449;47.666;9.160;2023-05-16T15:57:42;96797.69;;;12.63;100.00
13594;BME280;6449;47.666;9.160;2023-05-16T16:02:37;96786.88;;;12.66;100.00
13594;BME280;6449;47.666;9.160;2023-05-16T16:07:31;96792.88;;;12.68;100.00
13594;BME280;6449;47.666;9.160;2023-05-16T16:12:24;96796.81;;;12.62;100.00
13594;BME280;6449;47.666;9.160;2023-05-16T16:17:18;96810.41;;;12.57;100.00
13594;BME280;6449;47.666;9.160;2023-05-16T16:22:12;96812.06;;;12.58;100.00
13594;BME280;6449;47.666;9.160;2023-05-16T16:27:07;96797.91;;;12.80;100.00
13594;BME280;6449;47.666;9.160;2023-05-16T16:32:01;96820.78;;;12.59;100.00
13594;BME280;6449;47.666;9.160;2023-05-16T16:36:54;96825.41;;;12.46;100.00
13594;BME280;6449;47.666;9.160;2023-05-16T16:41:49;96849.28;;;12.33;100.00
13594;BME280;6449;47.666;9.160;2023-05-16T16:46:42;96857.97;;;12.13;100.00
13594;BME280;6449;47.666;9.160;2023-05-16T16:51:36;96853.91;;;12.09;100.00
13594;BME280;6449;47.666;9.160;2023-05-16T16:56:29;96866.13;;;12.10;100.00
13594;BME280;6449;47.666;9.160;2023-05-16T17:01:24;96856.41;;;11.89;100.00
13594;BME280;6449;47.666;9.160;2023-05-16T17:06:20;96863.56;;;11.87;100.00
13594;BME280;6449;47.666;9.160;2023-05-16T17:11:14;96855.06;;;11.95;100.00
13594;BME280;6449;47.666;9.160;2023-05-16T17:16:13;96869.78;;;11.75;100.00
13594;BME280;6449;47.666;9.160;2023-05-16T17:21:09;96861.22;;;11.73;100.00
13594;BME280;6449;47.666;9.160;2023-05-16T17:26:04;96871.75;;;11.62;100.00
13594;BME280;6449;47.666;9.160;2023-05-16T17:30:58;96865.03;;;11.69;100.00
13594;BME280;6449;47.666;9.160;2023-05-16T17:35:51;96872.94;;;11.58;100.00
13594;BME280;6449;47.666;9.160;2023-05-16T17:40:46;96873.69;;;11.48;100.00
13594;BME280;6449;47.666;9.160;2023-05-16T17:45:40;96880.16;;;11.33;100.00
13594;BME280;6449;47.666;9.160;2023-05-16T17:50:34;96894.34;;;11.31;100.00
13594;BME280;6449;47.666;9.160;2023-05-16T17:55:28;96894.47;;;11.29;100.00
13594;BME280;6449;47.666;9.160;2023-05-16T18:00:23;96902.09;;;11.32;100.00
13594;BME280;6449;47.666;9.160;2023-05-16T18:05:16;96906.50;;;11.43;100.00
13594;BME280;6449;47.666;9.160;2023-05-16T18:10:11;96924.78;;;11.22;100.00
13594;BME280;6449;47.666;9.160;2023-05-16T18:15:06;96932.50;;;11.23;100.00
13594;BME280;6449;47.666;9.160;2023-05-16T18:20:01;96942.31;;;11.21;100.00
13594;BME280;6449;47.666;9.160;2023-05-16T18:25:00;96945.19;;;11.30;100.00
13594;BME280;6449;47.666;9.160;2023-05-16T18:29:54;96946.59;;;11.22;100.00
13594;BME280;6449;47.666;9.160;2023-05-16T18:34:47;96967.22;;;11.16;100.00
13594;BME280;6449;47.666;9.160;2023-05-16T18:39:42;96962.25;;;11.35;100.00
13594;BME280;6449;47.666;9.160;2023-05-16T18:44:36;96976.91;;;11.26;100.00
13594;BME280;6449;47.666;9.160;2023-05-16T18:49:29;96982.28;;;11.25;100.00
13594;BME280;6449;47.666;9.160;2023-05-16T18:54:24;96980.34;;;11.38;100.00
13594;BME280;6449;47.666;9.160;2023-05-16T18:59:19;96984.41;;;11.42;100.00
13594;BME280;6449;47.666;9.160;2023-05-16T19:04:12;96992.78;;;11.25;100.00
13594;BME280;6449;47.666;9.160;2023-05-16T19:09:05;97003.00;;;11.17;100.00
13594;BME280;6449;47.666;9.160;2023-05-16T19:14:00;97001.13;;;11.30;100.00
13594;BME280;6449;47.666;9.160;2023-05-16T19:18:55;96995.88;;;11.30;100.00
13594;BME280;6449;47.666;9.160;2023-05-16T19:23:49;97007.78;;;11.12;100.00
13594;BME280;6449;47.666;9.160;2023-05-16T19:28:42;97017.91;;;11.05;100.00
13594;BME280;6449;47.666;9.160;2023-05-16T19:33:36;97004.72;;;11.40;100.00
13594;BME280;6449;47.666;9.160;2023-05-16T19:38:31;97026.16;;;11.34;100.00
13594;BME280;6449;47.666;9.160;2023-05-16T19:43:24;97039.19;;;11.36;100.00
13594;BME280;6449;47.666;9.160;2023-05-16T19:48:18;97037.41;;;11.47;100.00
13594;BME280;6449;47.666;9.160;2023-05-16T19:53:11;97041.00;;;11.46;100.00
13594;BME280;6449;47.666;9.160;2023-05-16T19:58:06;97055.56;;;11.50;100.00
13594;BME280;6449;47.666;9.160;2023-05-16T20:02:59;97056.00;;;11.33;100.00
13594;BME280;6449;47.666;9.160;2023-05-16T20:07:53;97068.06;;;11.36;100.00
13594;BME280;6449;47.666;9.160;2023-05-16T20:12:47;97086.31;;;11.37;100.00
13594;BME280;6449;47.666;9.160;2023-05-16T20:17:41;97106.53;;;11.13;100.00
13594;BME280;6449;47.666;9.160;2023-05-16T20:22:35;97105.16;;;11.31;100.00
13594;BME280;6449;47.666;9.160;2023-05-16T20:27:32;97118.50;;;11.28;100.00
13594;BME280;6449;47.666;9.160;2023-05-16T20:32:26;97116.19;;;11.59;100.00
13594;BME280;6449;47.666;9.160;2023-05-16T20:37:21;97118.19;;;11.44;100.00
13594;BME280;6449;47.666;9.160;2023-05-16T20:42:17;97122.75;;;11.53;100.00
13594;BME280;6449;47.666;9.160;2023-05-16T20:47:11;97132.72;;;11.37;100.00
13594;BME280;6449;47.666;9.160;2023-05-16T20:52:05;97134.38;;;11.26;100.00
13594;BME280;6449;47.666;9.160;2023-05-16T20:57:00;97132.81;;;11.24;100.00
13594;BME280;6449;47.666;9.160;2023-05-16T21:01:53;97143.97;;;11.04;100.00
13594;BME280;6449;47.666;9.160;2023-05-16T21:06:48;97137.28;;;11.11;100.00
13594;BME280;6449;47.666;9.160;2023-05-16T21:11:41;97138.91;;;11.24;100.00
13594;BME280;6449;47.666;9.160;2023-05-16T21:16:36;97143.72;;;11.07;100.00
13594;BME280;6449;47.666;9.160;2023-05-16T21:21:30;97146.56;;;11.04;100.00
13594;BME280;6449;47.666;9.160;2023-05-16T21:26:23;97152.88;;;11.01;100.00
13594;BME280;6449;47.666;9.160;2023-05-16T21:31:17;97154.53;;;11.02;100.00
13594;BME280;6449;47.666;9.160;2023-05-16T21:36:11;97168.22;;;10.94;100.00
13594;BME280;6449;47.666;9.160;2023-05-16T21:41:05;97165.50;;;11.20;100.00
13594;BME280;6449;47.666;9.160;2023-05-16T21:45:58;97179.41;;;11.09;100.00
13594;BME280;6449;47.666;9.160;2023-05-16T21:50:51;97179.91;;;11.14;100.00
13594;BME280;6449;47.666;9.160;2023-05-16T21:55:49;97182.91;;;11.21;100.00
13594;BME280;6449;47.666;9.160;2023-05-16T22:00:43;97177.03;;;11.17;100.00
13594;BME280;6449;47.666;9.160;2023-05-16T22:05:36;97183.22;;;11.16;100.00
13594;BME280;6449;47.666;9.160;2023-05-16T22:10:29;97182.19;;;11.19;100.00
13594;BME280;6449;47.666;9.160;2023-05-16T22:15:24;97184.31;;;11.14;100.00
13594;BME280;6449;47.666;9.160;2023-05-16T22:20:18;97188.97;;;11.21;100.00
13594;BME280;6449;47.666;9.160;2023-05-16T22:25:12;97188.03;;;11.22;100.00
13594;BME280;6449;47.666;9.160;2023-05-16T22:30:07;97196.03;;;11.21;100.00
13594;BME280;6449;47.666;9.160;2023-05-16T22:35:03;97208.28;;;10.96;100.00
13594;BME280;6449;47.666;9.160;2023-05-16T22:39:56;97215.25;;;10.97;100.00
13594;BME280;6449;47.666;9.160;2023-05-16T22:44:49;97217.25;;;10.81;100.00
13594;BME280;6449;47.666;9.160;2023-05-16T22:49:43;97218.53;;;10.88;100.00
13594;BME280;6449;47.666;9.160;2023-05-16T22:54:38;97212.94;;;10.93;100.00
13594;BME280;6449;47.666;9.160;2023-05-16T22:59:32;97220.06;;;10.91;100.00
13594;BME280;6449;47.666;9.160;2023-05-16T23:04:26;97226.53;;;10.74;100.00
13594;BME280;6449;47.666;9.160;2023-05-16T23:09:19;97223.19;;;10.72;100.00
13594;BME280;6449;47.666;9.160;2023-05-16T23:14:16;97221.31;;;10.98;100.00
13594;BME280;6449;47.666;9.160;2023-05-16T23:19:10;97223.97;;;10.85;100.00
13594;BME280;6449;47.666;9.160;2023-05-16T23:24:03;97230.50;;;10.80;100.00
13594;BME280;6449;47.666;9.160;2023-05-16T23:28:57;97230.06;;;10.86;100.00
13594;BME280;6449;47.666;9.160;2023-05-16T23:33:51;97238.75;;;10.86;100.00
13594;BME280;6449;47.666;9.160;2023-05-16T23:38:45;97240.59;;;10.73;100.00
13594;BME280;6449;47.666;9.160;2023-05-16T23:43:38;97244.13;;;10.85;100.00
13594;BME280;6449;47.666;9.160;2023-05-16T23:48:32;97242.34;;;10.85;100.00
13594;BME280;6449;47.666;9.160;2023-05-16T23:53:28;97247.56;;;10.85;100.00
13594;BME280;6449;47.666;9.160;2023-05-16T23:58:23;97250.59;;;10.92;100.00
